createdAt,value
2022-11-24T00:00:06.359Z,78.75
2022-11-24T00:02:09.210Z,78.45
2022-11-24T00:04:12.790Z,78.69
2022-11-24T00:06:16.732Z,79.11
2022-11-24T00:08:19.437Z,78.82
2022-11-24T00:10:22.179Z,78.43
2022-11-24T00:12:24.937Z,78.55
2022-11-24T00:14:27.734Z,79.09
2022-11-24T00:16:33.887Z,78.91
2022-11-24T00:18:36.984Z,78.88
2022-11-24T00:20:39.741Z,78.95
2022-11-24T00:22:42.433Z,78.96
2022-11-24T00:24:45.117Z,79.10
2022-11-24T00:26:47.930Z,79.15
2022-11-24T00:28:52.581Z,79.14
2022-11-24T00:30:55.343Z,79.35
2022-11-24T00:32:59.490Z,79.04
2022-11-24T00:35:02.297Z,79.26
2022-11-24T00:37:05.072Z,79.34
2022-11-24T00:39:09.586Z,79.37
2022-11-24T00:41:13.035Z,79.40
2022-11-24T00:43:15.759Z,79.19
2022-11-24T00:45:18.482Z,79.05
2022-11-24T00:47:21.236Z,79.08
2022-11-24T00:49:25.355Z,79.03
2022-11-24T00:51:30.157Z,78.70
2022-11-24T00:53:32.953Z,79.53
2022-11-24T00:55:35.842Z,79.99
2022-11-24T00:57:38.556Z,80.14
2022-11-24T00:59:41.252Z,80.01
2022-11-24T01:01:44.089Z,80.40
2022-11-24T01:03:47.669Z,80.62
2022-11-24T01:05:51.775Z,80.51
2022-11-24T01:07:54.528Z,80.66
2022-11-24T01:09:57.363Z,80.82
2022-11-24T01:12:03.894Z,80.65
2022-11-24T01:14:06.643Z,80.81
2022-11-24T01:16:15.740Z,80.53
2022-11-24T01:18:18.476Z,80.58
2022-11-24T01:20:21.165Z,79.96
2022-11-24T01:22:27.326Z,79.87
2022-11-24T01:24:30.057Z,79.60
2022-11-24T01:26:32.870Z,79.63
2022-11-24T01:28:37.700Z,79.52
2022-11-24T01:30:42.274Z,79.23
2022-11-24T01:32:45.050Z,79.53
2022-11-24T01:34:47.766Z,79.20
2022-11-24T01:36:50.543Z,79.39
2022-11-24T01:38:54.654Z,78.83
2022-11-24T01:41:05.028Z,78.93
2022-11-24T01:43:17.463Z,78.84
2022-11-24T01:45:35.768Z,78.72
2022-11-24T01:47:41.660Z,78.32
2022-11-24T01:49:48.319Z,78.19
2022-11-24T01:51:56.462Z,78.11
2022-11-24T01:54:03.757Z,77.65
2022-11-24T01:56:07.927Z,77.66
2022-11-24T01:58:14.412Z,77.80
2022-11-24T02:00:18.695Z,77.74
2022-11-24T02:02:22.455Z,77.90
2022-11-24T02:04:29.845Z,78.06
2022-11-24T02:06:36.698Z,77.73
2022-11-24T02:09:04.520Z,78.04
2022-11-24T02:11:08.027Z,77.75
2022-11-24T02:13:11.717Z,77.78
2022-11-24T02:15:16.317Z,77.17
2022-11-24T02:17:19.119Z,77.41
2022-11-24T02:19:31.532Z,77.16
2022-11-24T02:21:34.354Z,76.84
2022-11-24T02:23:46.161Z,76.75
2022-11-24T02:25:59.297Z,77.15
2022-11-24T02:28:07.617Z,76.72
2022-11-24T02:30:11.167Z,77.04
2022-11-24T02:32:14.051Z,77.05
2022-11-24T02:34:16.908Z,77.12
2022-11-24T02:36:19.710Z,77.39
2022-11-24T02:38:31.251Z,77.06
2022-11-24T02:40:34.341Z,77.00
2022-11-24T02:42:42.327Z,77.11
2022-11-24T02:44:49.981Z,77.21
2022-11-24T02:47:02.923Z,77.37
2022-11-24T02:49:05.736Z,77.65
2022-11-24T02:51:09.216Z,77.59
2022-11-24T02:53:11.949Z,77.19
2022-11-24T02:55:14.967Z,77.41
2022-11-24T02:57:17.823Z,77.27
2022-11-24T02:59:20.948Z,76.65
2022-11-24T03:01:25.132Z,77.45
2022-11-24T03:03:28.529Z,77.41
2022-11-24T03:05:31.310Z,77.20
2022-11-24T03:07:34.154Z,77.18
2022-11-24T03:09:37.008Z,77.41
2022-11-24T03:11:41.295Z,77.34
2022-11-24T03:13:44.134Z,77.33
2022-11-24T03:15:46.940Z,76.61
2022-11-24T03:17:51.497Z,77.08
2022-11-24T03:19:54.282Z,77.19
2022-11-24T03:21:57.043Z,77.37
2022-11-24T03:24:00.212Z,77.22
2022-11-24T03:26:09.910Z,76.80
2022-11-24T03:28:12.667Z,76.80
2022-11-24T03:30:16.402Z,77.21
2022-11-24T03:32:19.180Z,77.46
2022-11-24T03:34:23.363Z,77.44
2022-11-24T03:36:26.166Z,77.28
2022-11-24T03:38:29.165Z,77.39
2022-11-24T03:40:32.034Z,77.25
2022-11-24T03:42:34.822Z,76.82
2022-11-24T03:44:37.658Z,77.23
2022-11-24T03:46:40.452Z,77.53
2022-11-24T03:48:43.253Z,77.03
2022-11-24T03:50:54.393Z,76.60
2022-11-24T03:52:57.224Z,77.14
2022-11-24T03:55:00.032Z,77.36
2022-11-24T03:57:02.833Z,77.61
2022-11-24T03:59:05.650Z,77.66
2022-11-24T04:01:09.004Z,77.77
2022-11-24T04:03:11.873Z,77.22
2022-11-24T04:05:14.849Z,77.08
2022-11-24T04:07:19.461Z,77.10
2022-11-24T04:09:22.334Z,77.23
2022-11-24T04:11:43.002Z,77.23
2022-11-24T04:13:48.392Z,77.38
2022-11-24T04:15:51.713Z,77.15
2022-11-24T04:17:56.468Z,77.03
2022-11-24T04:19:59.763Z,77.42
2022-11-24T04:22:02.526Z,77.55
2022-11-24T04:24:07.096Z,77.65
2022-11-24T04:26:09.844Z,77.50
2022-11-24T04:28:12.632Z,76.97
2022-11-24T04:30:15.397Z,77.13
2022-11-24T04:32:18.188Z,77.33
2022-11-24T04:34:20.970Z,77.07
2022-11-24T04:36:23.818Z,77.17
2022-11-24T04:39:24.086Z,77.15
2022-11-24T04:40:50.819Z,77.52
2022-11-24T04:42:55.242Z,77.24
2022-11-24T04:44:58.060Z,77.50
2022-11-24T04:47:01.326Z,77.44
2022-11-24T04:49:04.170Z,77.79
2022-11-24T04:51:07.876Z,77.74
2022-11-24T04:53:12.056Z,77.15
2022-11-24T04:55:14.807Z,77.52
2022-11-24T04:57:20.942Z,77.07
2022-11-24T04:59:23.774Z,77.35
2022-11-24T05:01:26.591Z,77.89
2022-11-24T05:03:29.459Z,77.55
2022-11-24T05:05:32.531Z,77.64
2022-11-24T05:07:35.715Z,77.08
2022-11-24T05:09:59.787Z,76.62
2022-11-24T05:12:02.662Z,77.23
2022-11-24T05:14:06.810Z,77.12
2022-11-24T05:16:10.223Z,77.09
2022-11-24T05:18:16.252Z,77.35
2022-11-24T05:20:19.423Z,77.17
2022-11-24T05:22:22.345Z,77.17
2022-11-24T05:24:25.192Z,77.08
2022-11-24T05:26:28.712Z,76.95
2022-11-24T05:28:31.800Z,76.89
2022-11-24T05:30:37.534Z,76.62
2022-11-24T05:32:40.481Z,76.37
2022-11-24T05:34:43.245Z,76.90
2022-11-24T05:36:56.249Z,76.62
2022-11-24T05:38:59.108Z,76.91
2022-11-24T05:41:02.850Z,76.71
2022-11-24T05:43:05.724Z,77.00
2022-11-24T05:45:10.470Z,76.80
2022-11-24T05:47:14.729Z,76.73
2022-11-24T05:49:17.561Z,76.40
2022-11-24T05:51:20.344Z,75.91
2022-11-24T05:53:23.808Z,76.07
2022-11-24T05:55:26.705Z,76.66
2022-11-24T05:57:29.479Z,76.50
2022-11-24T05:59:32.373Z,76.31
2022-11-24T06:01:35.712Z,76.45
2022-11-24T06:03:39.995Z,76.45
2022-11-24T06:05:47.798Z,76.45
2022-11-24T06:07:50.953Z,76.37
2022-11-24T06:09:53.852Z,76.33
2022-11-24T06:11:56.756Z,76.67
2022-11-24T06:13:59.612Z,76.13
2022-11-24T06:16:02.744Z,76.94
2022-11-24T06:18:05.652Z,76.82
2022-11-24T06:20:11.691Z,76.88
2022-11-24T06:22:14.492Z,77.36
2022-11-24T06:24:17.284Z,77.75
2022-11-24T06:26:20.177Z,78.11
2022-11-24T06:28:23.025Z,78.37
2022-11-24T06:30:25.908Z,78.63
2022-11-24T06:32:28.716Z,78.16
2022-11-24T06:34:31.705Z,78.79
2022-11-24T06:36:36.024Z,78.92
2022-11-24T06:38:38.996Z,79.45
2022-11-24T06:40:41.806Z,79.64
2022-11-24T06:42:51.410Z,79.41
2022-11-24T06:44:54.224Z,79.24
2022-11-24T06:46:57.170Z,78.65
2022-11-24T06:49:00.601Z,79.21
2022-11-24T06:51:04.812Z,79.55
2022-11-24T06:53:09.003Z,79.43
2022-11-24T06:55:11.843Z,79.28
2022-11-24T06:57:14.714Z,79.20
2022-11-24T06:59:19.506Z,79.34
2022-11-24T07:01:24.114Z,79.59
2022-11-24T07:03:27.107Z,79.94
2022-11-24T07:05:29.899Z,80.22
2022-11-24T07:07:32.783Z,80.14
2022-11-24T07:09:37.131Z,80.25
2022-11-24T07:11:40.994Z,80.14
2022-11-24T07:13:44.112Z,79.68
2022-11-24T07:15:46.961Z,79.61
2022-11-24T07:17:49.726Z,79.71
2022-11-24T07:19:52.668Z,79.79
2022-11-24T07:21:55.474Z,79.63
2022-11-24T07:23:59.193Z,79.66
2022-11-24T07:26:06.874Z,79.78
2022-11-24T07:28:10.074Z,79.46
2022-11-24T07:30:13.513Z,79.41
2022-11-24T07:32:16.480Z,79.24
2022-11-24T07:34:19.290Z,79.76
2022-11-24T07:36:22.964Z,79.43
2022-11-24T07:38:25.723Z,79.56
2022-11-24T07:40:28.558Z,79.38
2022-11-24T07:42:32.692Z,79.34
2022-11-24T07:44:35.709Z,79.27
2022-11-24T07:46:38.698Z,79.52
2022-11-24T07:48:41.471Z,79.68
2022-11-24T07:50:44.332Z,79.34
2022-11-24T07:52:47.182Z,79.25
2022-11-24T07:54:49.994Z,79.50
2022-11-24T07:56:53.028Z,79.54
2022-11-24T07:58:57.304Z,79.88
2022-11-24T08:01:00.388Z,79.78
2022-11-24T08:03:03.153Z,80.33
2022-11-24T08:05:06.563Z,79.99
2022-11-24T08:07:09.361Z,80.06
2022-11-24T08:09:12.146Z,80.30
2022-11-24T08:11:16.974Z,80.26
2022-11-24T08:13:19.876Z,80.53
2022-11-24T08:15:24.060Z,80.53
2022-11-24T08:17:26.892Z,80.33
2022-11-24T08:19:29.701Z,80.23
2022-11-24T08:21:32.531Z,80.19
2022-11-24T08:23:35.882Z,80.65
2022-11-24T08:25:38.970Z,79.85
2022-11-24T08:27:41.748Z,80.10
2022-11-24T08:29:44.845Z,80.28
2022-11-24T08:31:49.056Z,80.26
2022-11-24T08:33:51.861Z,80.25
2022-11-24T08:35:54.698Z,80.16
2022-11-24T08:38:03.219Z,79.44
2022-11-24T08:40:08.792Z,79.62
2022-11-24T08:42:11.629Z,79.86
2022-11-24T08:44:15.860Z,79.37
2022-11-24T08:46:19.936Z,79.65
2022-11-24T08:48:24.379Z,79.38
2022-11-24T08:50:27.391Z,79.61
2022-11-24T08:52:30.162Z,79.01
2022-11-24T08:54:33.280Z,78.88
2022-11-24T08:56:36.763Z,79.07
2022-11-24T08:58:40.855Z,78.57
2022-11-24T09:00:43.846Z,78.22
2022-11-24T09:02:46.710Z,78.61
2022-11-24T09:04:51.430Z,78.26
2022-11-24T09:06:54.155Z,77.68
2022-11-24T09:08:57.391Z,77.98
2022-11-24T09:11:01.326Z,77.30
2022-11-24T09:13:04.191Z,77.35
2022-11-24T09:15:08.050Z,77.44
2022-11-24T09:17:10.945Z,76.76
2022-11-24T09:19:13.869Z,77.21
2022-11-24T09:21:20.287Z,76.38
2022-11-24T09:23:23.086Z,76.17
2022-11-24T09:25:26.007Z,76.19
2022-11-24T09:27:29.006Z,75.49
2022-11-24T09:29:32.107Z,75.77
2022-11-24T09:31:37.552Z,75.35
2022-11-24T09:33:40.972Z,75.31
2022-11-24T09:35:43.805Z,73.86
2022-11-24T09:37:48.324Z,74.73
2022-11-24T09:39:51.329Z,74.51
2022-11-24T09:42:09.321Z,74.81
2022-11-24T09:44:40.512Z,74.15
2022-11-24T09:46:55.720Z,73.94
2022-11-24T09:48:59.710Z,74.24
2022-11-24T09:51:04.664Z,73.58
2022-11-24T09:53:17.632Z,73.33
2022-11-24T09:55:32.911Z,73.86
2022-11-24T09:57:39.648Z,73.77
2022-11-24T09:59:43.558Z,73.99
2022-11-24T10:01:48.484Z,74.36
2022-11-24T10:03:52.974Z,74.05
2022-11-24T10:05:56.452Z,74.51
2022-11-24T10:08:11.281Z,74.75
2022-11-24T10:10:24.472Z,73.90
2022-11-24T10:12:50.837Z,73.97
2022-11-24T10:15:02.275Z,74.32
2022-11-24T10:17:18.218Z,74.30
2022-11-24T10:19:37.556Z,74.15
2022-11-24T10:21:59.360Z,73.88
2022-11-24T10:24:27.689Z,73.96
2022-11-24T10:26:37.037Z,73.73
2022-11-24T10:28:44.757Z,73.12
2022-11-24T10:30:47.744Z,72.87
2022-11-24T10:32:53.965Z,72.38
2022-11-24T10:35:01.643Z,73.45
2022-11-24T10:37:14.092Z,73.01
2022-11-24T10:39:22.603Z,73.04
2022-11-24T10:41:38.609Z,72.67
2022-11-24T10:43:43.760Z,71.83
2022-11-24T10:45:46.767Z,71.75
2022-11-24T10:47:50.712Z,71.38
2022-11-24T10:49:58.590Z,71.19
2022-11-24T10:52:07.752Z,71.94
2022-11-24T10:54:17.425Z,71.05
2022-11-24T10:56:20.258Z,71.93
2022-11-24T10:58:26.649Z,71.58
2022-11-24T11:00:35.792Z,71.82
2022-11-24T11:02:40.171Z,71.41
2022-11-24T11:04:43.078Z,71.43
2022-11-24T11:06:45.902Z,71.20
2022-11-24T11:08:48.789Z,70.86
2022-11-24T11:11:08.339Z,70.53
2022-11-24T11:13:26.059Z,69.36
2022-11-24T11:15:31.943Z,70.13
2022-11-24T11:17:38.963Z,69.74
2022-11-24T11:19:54.342Z,70.76
2022-11-24T11:22:05.452Z,70.06
2022-11-24T11:24:17.354Z,70.48
2022-11-24T11:26:31.996Z,69.95
2022-11-24T11:28:34.763Z,70.10
2022-11-24T11:35:27.287Z,69.62
2022-11-24T11:37:33.655Z,70.41
2022-11-24T11:39:41.382Z,69.80
2022-11-24T11:41:52.896Z,68.42
2022-11-24T11:44:06.012Z,68.70
2022-11-24T11:46:13.474Z,67.20
2022-11-24T11:48:33.651Z,67.24
2022-11-24T11:51:15.073Z,67.76
2022-11-24T11:53:20.844Z,66.78
2022-11-24T11:55:38.110Z,66.86
2022-11-24T11:57:50.364Z,66.79
2022-11-24T12:00:15.342Z,67.08
2022-11-24T12:02:48.470Z,67.11
2022-11-24T12:04:57.792Z,66.45
2022-11-24T12:07:22.275Z,66.69
2022-11-24T12:09:41.466Z,66.80
2022-11-24T12:11:50.536Z,66.86
2022-11-24T12:14:04.595Z,66.20
2022-11-24T12:16:18.127Z,66.10
2022-11-24T12:21:07.875Z,66.15
2022-11-24T12:23:21.136Z,65.78
2022-11-24T12:25:29.224Z,66.67
2022-11-24T12:27:42.830Z,66.66
2022-11-24T12:30:03.586Z,67.37
2022-11-24T12:32:16.132Z,67.56
2022-11-24T12:34:30.311Z,67.92
2022-11-24T12:36:50.407Z,67.43
2022-11-24T12:39:01.088Z,68.30
2022-11-24T12:43:51.360Z,68.98
2022-11-24T12:46:00.204Z,68.41
2022-11-24T12:48:25.088Z,68.87
2022-11-24T12:50:30.302Z,68.32
2022-11-24T12:52:38.528Z,69.21
2022-11-24T12:54:42.910Z,68.75
2022-11-24T12:56:51.842Z,67.91
2022-11-24T12:59:03.829Z,68.01
2022-11-24T13:01:16.934Z,67.22
2022-11-24T13:03:32.260Z,66.56
2022-11-24T13:05:39.973Z,66.83
2022-11-24T13:07:47.516Z,66.27
2022-11-24T13:10:40.505Z,66.15
2022-11-24T13:12:57.789Z,66.85
2022-11-24T13:15:00.661Z,66.84
2022-11-24T13:17:28.824Z,66.04
2022-11-24T13:19:32.648Z,66.08
2022-11-24T13:22:02.330Z,65.78
2022-11-24T13:24:22.055Z,65.25
2022-11-24T13:26:30.999Z,64.87
2022-11-24T13:29:08.855Z,63.77
2022-11-24T13:31:23.676Z,63.60
2022-11-24T13:33:34.895Z,63.65
2022-11-24T13:35:38.365Z,63.92
2022-11-24T13:37:51.581Z,63.30
2022-11-24T13:39:57.641Z,63.58
2022-11-24T13:42:01.481Z,62.16
2022-11-24T13:44:25.389Z,62.53
2022-11-24T13:47:03.318Z,62.54
2022-11-24T13:49:15.030Z,62.08
2022-11-24T13:51:24.474Z,62.34
2022-11-24T13:53:32.955Z,61.64
2022-11-24T13:55:40.101Z,62.15
2022-11-24T13:57:45.291Z,62.34
2022-11-24T13:59:48.637Z,61.13
2022-11-24T14:01:57.832Z,61.23
2022-11-24T14:04:33.994Z,60.29
2022-11-24T14:06:39.003Z,61.58
2022-11-24T14:08:41.822Z,61.19
2022-11-24T14:10:46.948Z,61.46
2022-11-24T14:13:29.129Z,60.50
2022-11-24T14:15:35.339Z,60.73
2022-11-24T14:17:38.821Z,60.85
2022-11-24T14:19:41.702Z,60.18
2022-11-24T14:21:45.171Z,60.81
2022-11-24T14:23:51.037Z,60.95
2022-11-24T14:25:55.446Z,60.67
2022-11-24T14:27:58.566Z,60.71
2022-11-24T14:30:03.795Z,61.39
2022-11-24T14:32:17.175Z,60.87
2022-11-24T14:34:22.545Z,61.01
2022-11-24T14:36:25.405Z,61.44
2022-11-24T14:38:28.289Z,61.33
2022-11-24T14:40:42.320Z,61.61
2022-11-24T14:42:50.599Z,61.82
2022-11-24T14:44:56.622Z,61.51
2022-11-24T14:47:04.278Z,61.78
2022-11-24T14:49:07.975Z,61.86
2022-11-24T14:51:17.063Z,62.06
2022-11-24T14:53:26.382Z,62.21
2022-11-24T14:55:31.468Z,61.83
2022-11-24T14:57:36.554Z,62.56
2022-11-24T14:59:40.708Z,62.14
2022-11-24T15:01:43.548Z,61.97
2022-11-24T15:03:46.495Z,62.67
2022-11-24T15:05:55.740Z,62.02
2022-11-24T15:08:03.532Z,62.13
2022-11-24T15:10:18.026Z,62.97
2022-11-24T15:12:29.008Z,62.67
2022-11-24T15:14:45.868Z,62.95
2022-11-24T15:16:48.832Z,62.39
2022-11-24T15:18:58.454Z,62.64
2022-11-24T15:21:01.397Z,62.81
2022-11-24T15:23:21.918Z,63.39
2022-11-24T15:25:31.180Z,62.86
2022-11-24T15:27:33.945Z,63.49
2022-11-24T15:29:36.752Z,63.28
2022-11-24T15:31:45.310Z,64.22
2022-11-24T15:33:52.172Z,64.14
2022-11-24T15:35:55.031Z,63.96
2022-11-24T15:37:57.839Z,64.11
2022-11-24T15:40:00.677Z,63.81
2022-11-24T15:42:03.524Z,64.14
2022-11-24T15:44:06.357Z,64.61
2022-11-24T15:46:10.320Z,64.57
2022-11-24T15:48:17.907Z,64.83
2022-11-24T15:50:22.654Z,65.23
2022-11-24T15:52:25.585Z,65.49
2022-11-24T15:54:29.564Z,65.84
2022-11-24T15:56:34.654Z,65.46
2022-11-24T15:58:37.494Z,66.20
2022-11-24T16:00:41.158Z,66.11
2022-11-24T16:02:43.989Z,66.61
2022-11-24T16:04:48.233Z,67.34
2022-11-24T16:06:51.067Z,67.33
2022-11-24T16:08:54.252Z,67.41
2022-11-24T16:10:57.078Z,67.11
2022-11-24T16:12:59.906Z,67.22
2022-11-24T16:15:02.745Z,67.77
2022-11-24T16:17:05.681Z,68.30
2022-11-24T16:19:09.946Z,67.69
2022-11-24T16:21:14.066Z,68.38
2022-11-24T16:23:16.908Z,68.08
2022-11-24T16:25:19.747Z,68.91
2022-11-24T16:27:22.526Z,68.55
2022-11-24T16:29:25.344Z,69.05
2022-11-24T16:31:28.230Z,69.17
2022-11-24T16:33:31.418Z,68.94
2022-11-24T16:35:34.659Z,69.32
2022-11-24T16:37:38.887Z,69.37
2022-11-24T16:39:46.958Z,69.85
2022-11-24T16:41:52.741Z,69.60
2022-11-24T16:43:55.591Z,69.69
2022-11-24T16:46:16.724Z,69.91
2022-11-24T16:48:19.577Z,69.76
2022-11-24T16:50:22.430Z,69.96
2022-11-24T16:52:25.301Z,70.25
2022-11-24T16:54:29.455Z,69.86
2022-11-24T16:56:32.948Z,69.59
2022-11-24T16:58:38.727Z,69.63
2022-11-24T17:00:42.009Z,69.96
2022-11-24T17:02:44.888Z,70.40
2022-11-24T17:04:49.660Z,70.50
2022-11-24T17:06:52.679Z,70.20
2022-11-24T17:08:56.336Z,70.56
2022-11-24T17:11:06.166Z,70.65
2022-11-24T17:13:10.341Z,70.24
2022-11-24T17:17:37.531Z,70.88
2022-11-24T17:19:40.385Z,70.87
2022-11-24T17:21:43.161Z,71.20
2022-11-24T17:23:46.207Z,71.05
2022-11-24T17:25:49.455Z,71.16
2022-11-24T17:27:54.134Z,71.31
2022-11-24T17:29:56.957Z,71.47
2022-11-24T17:31:59.795Z,71.63
2022-11-24T17:34:04.182Z,71.71
2022-11-24T17:36:07.904Z,71.82
2022-11-24T17:38:10.734Z,71.49
2022-11-24T17:40:28.446Z,71.18
2022-11-24T17:42:32.666Z,71.88
2022-11-24T17:44:37.276Z,71.96
2022-11-24T17:46:40.174Z,71.88
2022-11-24T17:48:43.224Z,71.90
2022-11-24T17:50:46.126Z,71.80
2022-11-24T17:52:48.944Z,72.08
2022-11-24T17:54:51.876Z,72.31
2022-11-24T17:56:54.659Z,72.63
2022-11-24T17:58:59.162Z,72.62
2022-11-24T18:01:03.425Z,72.75
2022-11-24T18:03:08.225Z,72.89
2022-11-24T18:05:11.446Z,72.85
2022-11-24T18:07:14.288Z,72.81
2022-11-24T18:09:17.090Z,73.15
2022-11-24T18:11:25.916Z,73.12
2022-11-24T18:13:54.790Z,73.32
2022-11-24T18:15:54.701Z,73.56
2022-11-24T18:17:58.986Z,73.71
2022-11-24T18:20:05.684Z,73.41
2022-11-24T18:22:08.691Z,73.39
2022-11-24T18:24:13.044Z,73.27
2022-11-24T18:26:16.786Z,73.51
2022-11-24T18:28:19.688Z,73.42
2022-11-24T18:30:22.519Z,73.43
2022-11-24T18:32:25.303Z,73.52
2022-11-24T18:34:29.524Z,73.63
2022-11-24T18:36:33.045Z,73.67
2022-11-24T18:38:36.983Z,73.67
2022-11-24T18:40:41.255Z,73.52
2022-11-24T18:42:44.053Z,73.76
2022-11-24T18:44:51.057Z,73.64
2022-11-24T18:46:55.461Z,73.49
2022-11-24T18:48:58.268Z,73.69
2022-11-24T18:51:02.497Z,73.74
2022-11-24T18:53:05.538Z,73.60
2022-11-24T18:55:08.963Z,73.51
2022-11-24T18:57:11.787Z,73.60
2022-11-24T18:59:14.584Z,73.71
2022-11-24T19:01:19.712Z,73.70
2022-11-24T19:03:22.512Z,73.88
2022-11-24T19:05:25.289Z,73.60
2022-11-24T19:07:29.423Z,73.69
2022-11-24T19:09:32.292Z,73.37
2022-11-24T19:11:37.011Z,73.71
2022-11-24T19:13:39.814Z,73.76
2022-11-24T19:15:42.726Z,74.06
2022-11-24T19:17:47.446Z,74.10
2022-11-24T19:19:51.583Z,74.18
2022-11-24T19:21:54.326Z,74.47
2022-11-24T19:24:04.175Z,74.40
2022-11-24T19:26:08.704Z,74.26
2022-11-24T19:28:12.667Z,74.08
2022-11-24T19:30:17.234Z,74.18
2022-11-24T19:32:20.171Z,74.43
2022-11-24T19:34:23.064Z,74.25
2022-11-24T19:36:26.707Z,74.05
2022-11-24T19:38:30.204Z,74.47
2022-11-24T19:40:34.470Z,74.22
2022-11-24T19:42:37.325Z,74.60
2022-11-24T19:44:40.127Z,74.39
2022-11-24T19:46:42.965Z,74.27
2022-11-24T19:48:46.998Z,74.02
2022-11-24T19:50:50.054Z,74.78
2022-11-24T19:52:53.164Z,74.60
2022-11-24T19:54:56.077Z,74.58
2022-11-24T19:57:00.347Z,74.40
2022-11-24T19:59:04.126Z,74.56
2022-11-24T20:01:08.050Z,74.78
2022-11-24T20:03:10.964Z,74.34
2022-11-24T20:05:13.784Z,74.36
2022-11-24T20:07:16.768Z,74.60
2022-11-24T20:09:21.036Z,74.02
2022-11-24T20:11:24.079Z,74.42
2022-11-24T20:13:28.406Z,74.36
2022-11-24T20:15:31.233Z,74.44
2022-11-24T20:17:34.127Z,73.89
2022-11-24T20:19:37.127Z,73.80
2022-11-24T20:21:41.471Z,74.12
2022-11-24T20:23:46.080Z,73.93
2022-11-24T20:25:48.885Z,74.08
2022-11-24T20:27:51.723Z,74.20
2022-11-24T20:29:55.952Z,74.43
2022-11-24T20:31:59.240Z,74.29
2022-11-24T20:34:03.959Z,73.99
2022-11-24T20:36:09.037Z,74.07
2022-11-24T20:38:11.895Z,74.15
2022-11-24T20:40:14.859Z,74.02
2022-11-24T20:42:17.633Z,74.25
2022-11-24T20:44:22.220Z,73.95
2022-11-24T20:46:28.612Z,74.12
2022-11-24T20:48:31.778Z,74.50
2022-11-24T20:50:37.073Z,74.40
2022-11-24T20:52:39.878Z,74.63
2022-11-24T20:54:46.590Z,74.60
2022-11-24T20:56:49.558Z,74.40
2022-11-24T20:58:53.374Z,74.14
2022-11-24T21:00:56.331Z,74.29
2022-11-24T21:03:00.514Z,74.20
2022-11-24T21:05:03.324Z,74.67
2022-11-24T21:07:06.152Z,74.58
2022-11-24T21:09:09.973Z,74.58
2022-11-24T21:11:14.537Z,74.00
2022-11-24T21:13:17.365Z,73.90
2022-11-24T21:15:20.116Z,73.79
2022-11-24T21:17:22.928Z,74.23
2022-11-24T21:19:27.239Z,74.36
2022-11-24T21:21:34.056Z,74.59
2022-11-24T21:23:36.927Z,74.78
2022-11-24T21:25:39.889Z,74.39
2022-11-24T21:27:42.760Z,74.48
2022-11-24T21:29:45.555Z,73.96
2022-11-24T21:31:48.470Z,74.21
2022-11-24T21:33:53.339Z,74.19
2022-11-24T21:36:01.219Z,74.26
2022-11-24T21:38:04.703Z,74.37
2022-11-24T21:40:08.975Z,74.39
2022-11-24T21:42:11.839Z,74.62
2022-11-24T21:44:15.106Z,73.98
2022-11-24T21:46:18.505Z,74.16
2022-11-24T21:48:21.377Z,74.15
2022-11-24T21:50:24.242Z,74.16
2022-11-24T21:52:28.418Z,74.28
2022-11-24T21:54:31.216Z,73.88
2022-11-24T21:56:34.020Z,73.99
2022-11-24T21:58:37.065Z,73.72
2022-11-24T22:00:39.909Z,74.00
2022-11-24T22:02:42.948Z,73.83
2022-11-24T22:04:45.867Z,73.85
2022-11-24T22:06:48.646Z,73.98
2022-11-24T22:08:52.849Z,74.40
2022-11-24T22:11:01.433Z,74.42
2022-11-24T22:13:04.232Z,74.40
2022-11-24T22:15:07.967Z,74.15
2022-11-24T22:17:10.876Z,74.11
2022-11-24T22:19:13.898Z,74.35
2022-11-24T22:21:19.126Z,74.33
2022-11-24T22:23:21.918Z,74.32
2022-11-24T22:25:26.697Z,74.03
2022-11-24T22:27:29.531Z,74.02
2022-11-24T22:29:32.328Z,74.69
2022-11-24T22:31:35.178Z,74.71
2022-11-24T22:33:38.049Z,74.42
2022-11-24T22:35:40.807Z,74.84
2022-11-24T22:37:43.625Z,74.63
2022-11-24T22:39:46.487Z,74.75
2022-11-24T22:41:50.549Z,74.91
2022-11-24T22:43:54.417Z,74.75
2022-11-24T22:45:57.280Z,74.80
2022-11-24T22:48:00.093Z,75.07
2022-11-24T22:50:02.936Z,74.87
2022-11-24T22:52:05.734Z,74.57
2022-11-24T22:54:08.660Z,74.49
2022-11-24T22:56:12.420Z,74.65
2022-11-24T22:58:16.538Z,74.29
2022-11-24T23:00:19.893Z,74.57
2022-11-24T23:02:22.818Z,74.29
2022-11-24T23:04:25.657Z,74.83
2022-11-24T23:06:30.100Z,74.63
2022-11-24T23:08:34.730Z,75.00
2022-11-24T23:10:37.565Z,74.93
2022-11-24T23:12:40.307Z,74.62
2022-11-24T23:14:44.442Z,74.89
2022-11-24T23:16:47.563Z,75.14
2022-11-24T23:18:53.946Z,74.61
2022-11-24T23:20:57.256Z,74.93
2022-11-24T23:23:00.130Z,75.11
2022-11-24T23:25:02.975Z,75.22
2022-11-24T23:27:05.830Z,74.83
2022-11-24T23:29:09.333Z,74.90
2022-11-24T23:31:16.561Z,74.56
2022-11-24T23:33:19.399Z,74.75
2022-11-24T23:35:22.207Z,74.91
2022-11-24T23:37:39.425Z,74.73
2022-11-24T23:39:47.768Z,74.89
2022-11-24T23:41:50.656Z,74.41
2022-11-24T23:43:53.969Z,74.87
2022-11-24T23:46:02.347Z,74.70
2022-11-24T23:48:08.458Z,74.50
2022-11-24T23:50:11.572Z,74.71
2022-11-24T23:52:14.389Z,74.64
2022-11-24T23:54:17.198Z,74.79
2022-11-24T23:56:21.764Z,75.06
2022-11-24T23:58:24.581Z,74.72
